createdAt,value
2023-01-25T00:00:31.205Z,90.21
2023-01-25T00:02:57.848Z,90.84
2023-01-25T00:05:24.820Z,91.32
2023-01-25T00:07:51.404Z,91.68
2023-01-25T00:10:18.184Z,92.34
2023-01-25T00:12:44.630Z,92.79
2023-01-25T00:15:11.506Z,92.45
2023-01-25T00:17:37.970Z,91.37
2023-01-25T00:20:04.789Z,91.76
2023-01-25T00:22:31.198Z,92.22
2023-01-25T00:24:57.656Z,91.39
2023-01-25T00:27:24.188Z,90.26
2023-01-25T00:29:50.638Z,91.22
2023-01-25T00:32:17.212Z,90.82
2023-01-25T00:34:46.744Z,91.55
2023-01-25T00:37:35.496Z,91.24
2023-01-25T00:40:01.960Z,90.16
2023-01-25T00:42:28.404Z,89.74
2023-01-25T00:44:54.908Z,91.27
2023-01-25T00:47:21.443Z,91.10
2023-01-25T00:49:48.007Z,91.56
2023-01-25T00:52:14.856Z,90.98
2023-01-25T00:54:41.752Z,91.45
2023-01-25T00:57:09.376Z,92.27
2023-01-25T00:59:36.176Z,91.85
2023-01-25T01:02:03.920Z,90.45
2023-01-25T01:04:31.065Z,90.77
2023-01-25T01:06:57.754Z,90.22
2023-01-25T01:09:24.268Z,91.23
2023-01-25T01:11:52.591Z,90.80
2023-01-25T01:14:19.554Z,90.80
2023-01-25T01:16:46.661Z,89.96
2023-01-25T01:19:13.965Z,89.96
2023-01-25T01:21:40.486Z,91.42
2023-01-25T01:24:07.411Z,91.26
2023-01-25T01:26:34.116Z,92.06
2023-01-25T01:29:00.605Z,91.38
2023-01-25T01:31:27.675Z,91.24
2023-01-25T01:34:07.884Z,91.99
2023-01-25T01:36:34.453Z,91.40
2023-01-25T01:39:01.632Z,90.90
2023-01-25T01:41:28.233Z,90.33
2023-01-25T01:43:54.880Z,90.91
2023-01-25T01:46:31.919Z,91.00
2023-01-25T01:49:03.096Z,90.69
2023-01-25T01:51:48.674Z,92.12
2023-01-25T01:54:38.558Z,92.55
2023-01-25T01:57:09.929Z,93.00
2023-01-25T01:59:44.302Z,93.04
2023-01-25T02:02:11.581Z,93.76
2023-01-25T02:04:38.333Z,94.92
2023-01-25T02:07:19.686Z,95.93
2023-01-25T02:09:50.123Z,95.81
2023-01-25T02:12:18.619Z,96.70
2023-01-25T02:14:48.925Z,97.20
2023-01-25T02:17:26.855Z,96.66
2023-01-25T02:20:16.632Z,97.17
2023-01-25T02:22:52.332Z,96.74
2023-01-25T02:25:19.155Z,97.74
2023-01-25T02:27:57.768Z,97.69
2023-01-25T02:30:25.778Z,98.06
2023-01-25T02:32:52.380Z,97.34
2023-01-25T02:35:22.548Z,97.57
2023-01-25T02:37:50.805Z,98.21
2023-01-25T02:40:18.141Z,97.77
2023-01-25T02:42:46.272Z,98.09
2023-01-25T02:45:18.442Z,98.29
2023-01-25T02:47:45.531Z,99.07
2023-01-25T02:50:14.291Z,99.68
2023-01-25T02:52:41.682Z,99.60
2023-01-25T02:55:09.716Z,99.80
2023-01-25T02:57:38.776Z,99.56
2023-01-25T03:00:06.522Z,99.72
2023-01-25T03:02:33.517Z,100.00
2023-01-25T03:05:00.228Z,98.69
2023-01-25T03:07:27.810Z,99.62
2023-01-25T03:09:55.644Z,100.00
2023-01-25T03:12:22.091Z,100.00
2023-01-25T03:14:48.569Z,100.00
2023-01-25T03:17:15.123Z,100.00
2023-01-25T03:19:41.770Z,99.63
2023-01-25T03:22:09.634Z,99.19
2023-01-25T03:24:36.767Z,99.48
2023-01-25T03:27:14.096Z,99.81
2023-01-25T03:30:00.280Z,98.87
2023-01-25T03:32:30.149Z,98.59
2023-01-25T03:35:03.681Z,98.51
2023-01-25T03:37:31.359Z,99.18
2023-01-25T03:39:58.670Z,99.58
2023-01-25T03:42:25.601Z,100.00
2023-01-25T03:44:56.397Z,99.64
2023-01-25T03:47:23.170Z,100.00
2023-01-25T03:49:51.052Z,100.00
2023-01-25T03:52:18.846Z,99.89
2023-01-25T03:54:46.484Z,100.00
2023-01-25T03:57:13.527Z,100.00
2023-01-25T03:59:50.587Z,99.74
2023-01-25T04:02:17.152Z,100.00
2023-01-25T04:04:43.643Z,100.00
2023-01-25T04:07:11.557Z,100.00
2023-01-25T04:09:40.159Z,99.59
2023-01-25T04:12:08.625Z,99.40
2023-01-25T04:14:44.447Z,99.14
2023-01-25T04:17:17.473Z,99.17
2023-01-25T04:20:14.804Z,99.31
2023-01-25T04:22:41.262Z,100.00
2023-01-25T04:25:09.412Z,99.33
2023-01-25T04:27:42.587Z,99.82
2023-01-25T04:30:13.572Z,99.26
2023-01-25T04:32:42.989Z,99.16
2023-01-25T04:35:22.782Z,99.17
2023-01-25T04:37:54.957Z,98.79
2023-01-25T04:40:23.658Z,98.70
2023-01-25T04:42:50.477Z,98.01
2023-01-25T04:45:17.332Z,98.11
2023-01-25T04:47:44.082Z,97.21
2023-01-25T04:50:10.687Z,97.81
2023-01-25T04:52:37.697Z,98.13
2023-01-25T04:55:04.482Z,99.07
2023-01-25T04:57:37.031Z,98.04
2023-01-25T05:00:04.148Z,97.74
2023-01-25T05:02:32.010Z,98.02
2023-01-25T05:04:58.593Z,98.33
2023-01-25T05:07:25.054Z,97.83
2023-01-25T05:09:51.874Z,96.95
2023-01-25T05:12:21.255Z,98.16
2023-01-25T05:14:54.750Z,100.00
2023-01-25T05:17:22.143Z,100.00
2023-01-25T05:19:48.594Z,100.00
2023-01-25T05:22:20.732Z,100.00
2023-01-25T05:24:50.650Z,100.00
2023-01-25T05:27:19.449Z,100.00
2023-01-25T05:29:55.656Z,99.25
2023-01-25T05:32:33.614Z,98.79
2023-01-25T05:35:00.988Z,97.37
2023-01-25T05:37:28.075Z,97.47
2023-01-25T05:40:01.029Z,97.69
2023-01-25T05:42:28.569Z,96.24
2023-01-25T05:44:55.362Z,96.56
2023-01-25T05:47:22.260Z,96.17
2023-01-25T05:49:48.851Z,95.97
2023-01-25T05:52:22.187Z,95.12
2023-01-25T05:54:49.237Z,96.70
2023-01-25T05:57:16.231Z,97.68
2023-01-25T05:59:42.962Z,96.67
2023-01-25T06:02:11.592Z,97.39
2023-01-25T06:04:38.838Z,97.41
2023-01-25T06:07:05.866Z,96.62
2023-01-25T06:09:33.868Z,95.53
2023-01-25T06:12:00.764Z,95.90
2023-01-25T06:14:27.192Z,94.99
2023-01-25T06:16:53.745Z,95.73
2023-01-25T06:19:54.249Z,97.62
2023-01-25T06:22:34.326Z,98.02
2023-01-25T06:25:00.841Z,98.87
2023-01-25T06:27:28.116Z,98.64
2023-01-25T06:29:54.865Z,98.26
2023-01-25T06:32:21.775Z,97.64
2023-01-25T06:34:48.284Z,96.93
2023-01-25T06:37:21.544Z,97.00
2023-01-25T06:39:48.009Z,97.66
2023-01-25T06:42:14.439Z,97.26
2023-01-25T06:44:40.872Z,98.04
2023-01-25T06:47:12.440Z,97.81
2023-01-25T06:49:38.856Z,97.47
2023-01-25T06:52:05.318Z,97.17
2023-01-25T06:54:31.805Z,96.79
2023-01-25T06:56:58.221Z,96.61
2023-01-25T06:59:24.767Z,95.91
2023-01-25T07:01:51.386Z,94.78
2023-01-25T07:04:17.983Z,95.59
2023-01-25T07:06:44.423Z,95.04
2023-01-25T07:09:13.763Z,94.78
2023-01-25T07:11:40.226Z,95.25
2023-01-25T07:14:06.860Z,94.86
2023-01-25T07:16:36.882Z,94.72
2023-01-25T07:19:07.644Z,94.48
2023-01-25T07:21:34.239Z,94.45
2023-01-25T07:24:02.547Z,94.85
2023-01-25T07:26:29.081Z,94.09
2023-01-25T07:28:57.292Z,93.31
2023-01-25T07:31:24.292Z,92.77
2023-01-25T07:33:52.206Z,92.86
2023-01-25T07:36:19.256Z,93.58
2023-01-25T07:38:45.901Z,93.60
2023-01-25T07:41:13.152Z,93.85
2023-01-25T07:43:39.883Z,93.44
2023-01-25T07:49:03.165Z,93.60
2023-01-25T07:51:31.034Z,93.72
2023-01-25T07:53:59.891Z,93.29
2023-01-25T07:56:29.706Z,92.89
2023-01-25T07:58:57.565Z,92.29
2023-01-25T08:01:26.133Z,91.95
2023-01-25T08:03:53.121Z,92.89
2023-01-25T08:06:30.610Z,93.17
2023-01-25T08:08:58.824Z,92.33
2023-01-25T08:11:29.077Z,92.60
2023-01-25T08:13:56.600Z,93.30
2023-01-25T08:16:26.568Z,93.15
2023-01-25T08:18:56.381Z,92.79
2023-01-25T08:21:32.719Z,93.32
2023-01-25T08:24:01.017Z,92.90
2023-01-25T08:26:28.647Z,91.60
2023-01-25T08:28:55.370Z,90.45
2023-01-25T08:31:24.980Z,90.74
2023-01-25T08:33:53.434Z,90.47
2023-01-25T08:36:20.628Z,89.83
2023-01-25T08:38:48.382Z,89.31
2023-01-25T08:41:18.120Z,88.61
2023-01-25T08:43:45.946Z,89.04
2023-01-25T08:46:14.725Z,88.44
2023-01-25T08:48:41.222Z,88.56
2023-01-25T08:51:09.229Z,88.52
2023-01-25T08:53:35.874Z,88.60
2023-01-25T08:56:13.837Z,87.62
2023-01-25T08:58:44.082Z,87.79
2023-01-25T09:01:12.710Z,87.61
2023-01-25T09:03:41.752Z,87.46
2023-01-25T09:06:09.579Z,87.85
2023-01-25T09:08:37.839Z,87.46
2023-01-25T09:11:06.522Z,87.66
2023-01-25T09:13:33.199Z,87.85
2023-01-25T09:16:01.314Z,87.61
2023-01-25T09:18:29.168Z,86.87
2023-01-25T09:20:55.808Z,88.92
2023-01-25T09:23:24.023Z,89.05
2023-01-25T09:25:58.398Z,88.88
2023-01-25T09:28:25.937Z,89.70
2023-01-25T09:31:21.818Z,88.64
2023-01-25T09:34:09.988Z,88.99
2023-01-25T09:36:37.294Z,88.94
2023-01-25T09:39:04.032Z,89.02
2023-01-25T09:41:58.159Z,90.04
2023-01-25T09:44:42.917Z,88.98
2023-01-25T09:47:20.952Z,90.82
2023-01-25T09:50:12.477Z,92.03
2023-01-25T09:52:48.244Z,91.37
2023-01-25T09:55:18.276Z,91.94
2023-01-25T09:57:46.479Z,92.65
2023-01-25T10:00:24.354Z,92.76
2023-01-25T10:03:20.334Z,92.25
2023-01-25T10:05:49.939Z,92.20
2023-01-25T10:08:30.307Z,93.31
2023-01-25T10:11:30.805Z,93.56
2023-01-25T10:13:58.609Z,93.87
2023-01-25T10:16:46.896Z,94.40
2023-01-25T10:19:25.559Z,93.80
2023-01-25T10:22:00.901Z,93.47
2023-01-25T10:24:58.166Z,94.49
2023-01-25T10:27:50.046Z,95.04
2023-01-25T10:30:22.496Z,94.56
2023-01-25T10:32:56.063Z,95.37
2023-01-25T10:35:35.406Z,96.36
2023-01-25T10:38:28.010Z,95.29
2023-01-25T10:41:16.700Z,96.72
2023-01-25T10:43:43.337Z,97.50
2023-01-25T10:46:24.941Z,95.60
2023-01-25T10:48:51.827Z,96.56
2023-01-25T10:51:33.217Z,97.20
2023-01-25T10:54:03.383Z,97.66
2023-01-25T10:56:32.820Z,98.66
2023-01-25T10:59:15.437Z,96.97
2023-01-25T11:01:42.611Z,95.59
2023-01-25T11:04:35.275Z,96.70
2023-01-25T11:07:06.016Z,96.97
2023-01-25T11:09:37.993Z,97.53
2023-01-25T11:12:19.148Z,97.65
2023-01-25T11:14:49.753Z,100.00
2023-01-25T11:17:22.445Z,100.00
2023-01-25T11:19:48.911Z,99.99
2023-01-25T11:22:18.132Z,100.00
2023-01-25T11:24:44.587Z,100.00
2023-01-25T11:27:18.200Z,100.00
2023-01-25T11:29:47.155Z,100.00
2023-01-25T11:32:22.783Z,100.00
2023-01-25T11:34:51.186Z,100.00
2023-01-25T11:38:03.285Z,100.00
2023-01-25T11:40:39.651Z,99.06
2023-01-25T11:43:21.349Z,98.27
2023-01-25T11:46:12.482Z,97.21
2023-01-25T11:48:55.669Z,96.62
2023-01-25T11:51:36.048Z,95.92
2023-01-25T11:54:35.919Z,95.05
2023-01-25T11:57:13.772Z,94.79
2023-01-25T12:00:05.102Z,94.36
2023-01-25T12:03:06.456Z,93.46
2023-01-25T12:05:58.211Z,94.85
2023-01-25T12:08:46.499Z,95.31
2023-01-25T12:11:58.482Z,95.72
2023-01-25T12:14:39.968Z,97.24
2023-01-25T12:17:24.432Z,97.91
2023-01-25T12:20:10.423Z,97.91
2023-01-25T12:22:54.557Z,97.37
2023-01-25T12:26:03.068Z,96.98
2023-01-25T12:28:36.540Z,99.21
2023-01-25T12:31:12.511Z,100.00
2023-01-25T12:33:53.488Z,99.27
2023-01-25T12:36:32.499Z,98.22
2023-01-25T12:39:05.403Z,98.52
2023-01-25T12:41:47.453Z,96.59
2023-01-25T12:44:38.994Z,96.08
2023-01-25T12:47:15.076Z,95.64
2023-01-25T12:49:57.845Z,94.62
2023-01-25T12:52:30.649Z,96.41
2023-01-25T12:55:01.227Z,97.61
2023-01-25T12:57:58.591Z,97.72
2023-01-25T13:00:32.720Z,97.16
2023-01-25T13:03:16.901Z,96.56
2023-01-25T13:06:08.259Z,96.05
2023-01-25T13:09:03.992Z,95.72
2023-01-25T13:11:35.381Z,96.19
2023-01-25T13:14:17.540Z,97.74
2023-01-25T13:17:09.506Z,97.77
2023-01-25T13:19:36.835Z,97.78
2023-01-25T13:22:04.649Z,98.13
2023-01-25T13:24:54.991Z,97.21
2023-01-25T13:27:30.122Z,97.87
2023-01-25T13:30:03.283Z,96.58
2023-01-25T13:32:32.812Z,96.93
2023-01-25T13:35:00.982Z,97.04
2023-01-25T13:37:33.054Z,97.57
2023-01-25T13:40:09.907Z,96.71
2023-01-25T13:42:39.258Z,97.84
2023-01-25T13:45:18.460Z,97.47
2023-01-25T13:48:19.577Z,97.30
2023-01-25T13:50:50.934Z,97.98
2023-01-25T13:53:23.597Z,97.86
2023-01-25T13:55:55.426Z,96.69
2023-01-25T13:58:27.937Z,96.38
2023-01-25T14:00:57.939Z,96.45
2023-01-25T14:03:35.625Z,94.87
2023-01-25T14:06:04.243Z,94.51
2023-01-25T14:08:31.800Z,94.10
2023-01-25T14:10:58.902Z,93.22
2023-01-25T14:13:25.395Z,94.03
2023-01-25T14:16:00.836Z,93.72
2023-01-25T14:18:31.085Z,93.70
2023-01-25T14:21:17.199Z,94.75
2023-01-25T14:23:44.876Z,96.18
2023-01-25T14:26:18.984Z,96.65
2023-01-25T14:28:59.539Z,96.47
2023-01-25T14:31:34.204Z,96.29
2023-01-25T14:34:04.064Z,95.69
2023-01-25T14:36:34.120Z,94.26
2023-01-25T14:39:02.009Z,94.91
2023-01-25T14:41:59.821Z,96.58
2023-01-25T14:44:29.042Z,95.43
2023-01-25T14:47:25.056Z,96.38
2023-01-25T14:49:51.607Z,96.71
2023-01-25T14:52:20.916Z,96.45
2023-01-25T14:54:53.860Z,96.19
2023-01-25T14:57:39.284Z,95.06
2023-01-25T15:00:18.991Z,94.57
2023-01-25T15:02:56.326Z,93.72
2023-01-25T15:05:27.280Z,94.06
2023-01-25T15:07:56.058Z,92.92
2023-01-25T15:10:22.487Z,91.99
2023-01-25T15:13:15.659Z,91.44
2023-01-25T15:15:58.792Z,91.10
2023-01-25T15:19:00.803Z,91.55
2023-01-25T15:21:31.741Z,91.48
2023-01-25T15:24:04.651Z,90.87
2023-01-25T15:26:33.611Z,90.10
2023-01-25T15:29:20.848Z,90.58
2023-01-25T15:31:48.812Z,91.79
2023-01-25T15:34:25.279Z,91.90
2023-01-25T15:36:51.833Z,92.04
2023-01-25T15:39:19.711Z,92.50
2023-01-25T15:41:47.434Z,92.84
2023-01-25T15:44:13.931Z,93.26
2023-01-25T15:46:44.110Z,93.21
2023-01-25T15:49:18.553Z,93.04
2023-01-25T15:51:45.026Z,92.73
2023-01-25T15:54:11.564Z,92.76
2023-01-25T15:56:41.376Z,92.94
2023-01-25T15:59:14.901Z,92.29
2023-01-25T16:01:41.433Z,91.50
2023-01-25T16:04:10.470Z,91.07
2023-01-25T16:06:41.978Z,91.37
2023-01-25T16:09:21.524Z,91.42
2023-01-25T16:11:51.670Z,90.38
2023-01-25T16:14:18.859Z,90.13
2023-01-25T16:16:49.103Z,90.50
2023-01-25T16:19:18.745Z,89.52
2023-01-25T16:21:45.226Z,89.53
2023-01-25T16:24:12.762Z,89.74
2023-01-25T16:26:44.850Z,89.03
2023-01-25T16:29:12.180Z,89.99
2023-01-25T16:31:38.815Z,89.96
2023-01-25T16:34:05.274Z,90.92
2023-01-25T16:36:34.207Z,92.17
2023-01-25T16:39:17.625Z,91.10
2023-01-25T16:41:44.044Z,91.85
2023-01-25T16:44:10.448Z,92.21
2023-01-25T16:46:37.063Z,92.07
2023-01-25T16:49:06.634Z,91.85
2023-01-25T16:51:33.284Z,91.57
2023-01-25T16:53:59.771Z,91.07
2023-01-25T16:56:32.532Z,91.50
2023-01-25T16:59:04.528Z,90.61
2023-01-25T17:01:31.814Z,91.46
2023-01-25T17:03:58.670Z,92.96
2023-01-25T17:06:32.675Z,94.10
2023-01-25T17:09:12.645Z,95.21
2023-01-25T17:11:47.775Z,95.12
2023-01-25T17:14:16.645Z,94.32
2023-01-25T17:16:44.335Z,93.04
2023-01-25T17:19:13.835Z,93.17
2023-01-25T17:21:40.865Z,92.65
2023-01-25T17:24:08.365Z,92.11
2023-01-25T17:26:35.253Z,91.71
2023-01-25T17:29:02.634Z,91.50
2023-01-25T17:31:34.659Z,90.96
2023-01-25T17:34:03.660Z,90.98
2023-01-25T17:36:30.575Z,91.00
2023-01-25T17:39:01.549Z,90.51
2023-01-25T17:41:28.052Z,90.53
2023-01-25T17:43:54.565Z,90.43
2023-01-25T17:46:25.640Z,89.87
2023-01-25T17:48:53.349Z,89.60
2023-01-25T17:51:20.408Z,89.28
2023-01-25T17:53:46.993Z,90.13
2023-01-25T17:56:14.075Z,88.81
2023-01-25T17:58:41.507Z,89.26
2023-01-25T18:01:14.291Z,88.76
2023-01-25T18:03:42.201Z,88.71
2023-01-25T18:06:09.762Z,89.40
2023-01-25T18:08:38.314Z,88.94
2023-01-25T18:11:08.649Z,89.56
2023-01-25T18:13:39.295Z,90.54
2023-01-25T18:16:08.471Z,89.85
2023-01-25T18:18:36.269Z,90.57
2023-01-25T18:21:09.314Z,90.88
2023-01-25T18:23:36.898Z,90.25
2023-01-25T18:26:05.478Z,89.39
2023-01-25T18:28:33.039Z,89.54
2023-01-25T18:31:04.443Z,88.98
2023-01-25T18:33:33.044Z,89.07
2023-01-25T18:36:02.790Z,88.92
2023-01-25T18:38:30.415Z,89.33
2023-01-25T18:40:57.313Z,88.90
2023-01-25T18:43:23.839Z,88.99
2023-01-25T18:45:55.688Z,95.29
2023-01-25T18:48:30.233Z,95.18
2023-01-25T18:51:14.854Z,91.89
2023-01-25T18:53:42.714Z,90.54
2023-01-25T18:56:20.927Z,87.86
2023-01-25T18:58:47.923Z,87.58
2023-01-25T19:01:17.480Z,87.33
2023-01-25T19:03:45.404Z,87.27
2023-01-25T19:06:11.931Z,88.10
2023-01-25T19:08:44.001Z,87.50
2023-01-25T19:11:15.163Z,87.62
2023-01-25T19:13:43.220Z,87.54
2023-01-25T19:16:15.232Z,87.12
2023-01-25T19:18:46.753Z,86.81
2023-01-25T19:21:19.276Z,85.62
2023-01-25T19:23:46.237Z,86.50
2023-01-25T19:26:15.848Z,86.01
2023-01-25T19:28:43.143Z,85.83
2023-01-25T19:31:12.155Z,85.43
2023-01-25T19:33:38.867Z,85.12
2023-01-25T19:36:07.337Z,84.97
2023-01-25T19:38:39.278Z,84.03
2023-01-25T19:41:08.010Z,84.24
2023-01-25T19:43:34.583Z,85.09
2023-01-25T19:46:08.683Z,84.60
2023-01-25T19:48:36.078Z,85.19
2023-01-25T19:51:13.666Z,85.59
2023-01-25T19:53:44.514Z,85.00
2023-01-25T19:56:11.106Z,84.90
2023-01-25T19:58:37.558Z,84.58
2023-01-25T20:01:09.337Z,84.75
2023-01-25T20:03:36.896Z,84.37
2023-01-25T20:06:06.893Z,84.16
2023-01-25T20:08:38.730Z,84.58
2023-01-25T20:11:09.857Z,85.13
2023-01-25T20:13:36.461Z,84.84
2023-01-25T20:16:03.559Z,83.82
2023-01-25T20:18:31.100Z,83.52
2023-01-25T20:20:59.351Z,82.66
2023-01-25T20:23:26.192Z,82.81
2023-01-25T20:25:57.760Z,83.52
2023-01-25T20:28:25.305Z,84.06
2023-01-25T20:30:51.973Z,85.06
2023-01-25T20:33:18.728Z,84.54
2023-01-25T20:35:45.689Z,84.96
2023-01-25T20:38:12.179Z,84.35
2023-01-25T20:40:38.696Z,84.64
2023-01-25T20:43:05.267Z,84.46
2023-01-25T20:45:31.725Z,84.06
2023-01-25T20:47:58.196Z,84.02
2023-01-25T20:50:24.676Z,83.91
2023-01-25T20:52:51.126Z,83.83
2023-01-25T20:55:17.648Z,83.60
2023-01-25T20:57:44.080Z,83.46
2023-01-25T21:00:11.250Z,83.80
2023-01-25T21:02:38.771Z,83.71
2023-01-25T21:05:05.528Z,83.60
2023-01-25T21:07:32.009Z,83.46
2023-01-25T21:09:58.460Z,83.25
2023-01-25T21:12:24.896Z,83.38
2023-01-25T21:14:51.703Z,82.95
2023-01-25T21:17:18.150Z,83.47
2023-01-25T21:19:44.583Z,82.98
2023-01-25T21:22:11.095Z,83.23
2023-01-25T21:24:37.559Z,83.41
2023-01-25T21:27:03.996Z,82.63
2023-01-25T21:29:30.438Z,82.54
2023-01-25T21:31:58.827Z,82.88
2023-01-25T21:34:25.345Z,82.75
2023-01-25T21:36:51.880Z,83.30
2023-01-25T21:39:18.289Z,83.83
2023-01-25T21:41:44.751Z,83.50
2023-01-25T21:44:30.075Z,82.54
2023-01-25T21:47:23.533Z,82.89
2023-01-25T21:50:01.919Z,84.06
2023-01-25T21:52:28.449Z,83.45
2023-01-25T21:54:54.916Z,83.79
2023-01-25T21:57:21.421Z,83.85
2023-01-25T21:59:48.778Z,83.78
2023-01-25T22:02:15.574Z,84.47
2023-01-25T22:04:42.170Z,85.30
2023-01-25T22:07:09.691Z,85.05
2023-01-25T22:09:36.197Z,84.91
2023-01-25T22:12:02.766Z,84.37
2023-01-25T22:14:29.367Z,83.85
2023-01-25T22:16:58.745Z,83.36
2023-01-25T22:19:25.235Z,83.21
2023-01-25T22:21:51.766Z,82.80
2023-01-25T22:24:18.373Z,83.55
2023-01-25T22:26:58.525Z,82.42
2023-01-25T22:29:26.448Z,81.75
2023-01-25T22:31:52.907Z,81.93
2023-01-25T22:34:19.373Z,82.85
2023-01-25T22:36:45.795Z,83.22
2023-01-25T22:39:13.853Z,82.94
2023-01-25T22:41:41.318Z,83.01
2023-01-25T22:44:08.417Z,82.95
2023-01-25T22:46:34.846Z,82.82
2023-01-25T22:49:02.533Z,82.15
2023-01-25T22:51:30.334Z,82.22
2023-01-25T22:53:58.433Z,82.66
2023-01-25T22:56:31.854Z,82.85
2023-01-25T22:58:59.664Z,82.65
2023-01-25T23:01:31.255Z,82.18
2023-01-25T23:03:58.662Z,82.14
2023-01-25T23:06:30.392Z,81.57
2023-01-25T23:09:03.234Z,81.48
2023-01-25T23:11:35.621Z,81.25
2023-01-25T23:14:22.465Z,81.53
2023-01-25T23:16:48.961Z,81.73
2023-01-25T23:19:16.093Z,81.47
2023-01-25T23:21:42.654Z,80.87
2023-01-25T23:24:09.645Z,81.77
2023-01-25T23:26:40.883Z,81.76
2023-01-25T23:29:10.735Z,82.52
2023-01-25T23:31:37.810Z,82.51
2023-01-25T23:34:05.999Z,82.69
2023-01-25T23:36:38.767Z,82.67
2023-01-25T23:39:05.895Z,82.69
2023-01-25T23:41:32.754Z,82.22
2023-01-25T23:43:59.777Z,82.36
2023-01-25T23:46:28.220Z,82.32
2023-01-25T23:48:55.222Z,82.45
2023-01-25T23:51:22.070Z,82.30
2023-01-25T23:53:48.519Z,82.21
2023-01-25T23:56:18.129Z,82.64
2023-01-25T23:58:45.163Z,82.53
